sensor_id;sensor_type;location;lat;lon;timestamp;P1;durP1;ratioP1;P2;durP2;ratioP2
81508;SDS011;70930;52.412;13.554;2024-01-15T00:01:48;9.00;;;5.13;;
81508;SDS011;70930;52.412;13.554;2024-01-15T00:04:40;11.55;;;5.75;;
81508;SDS011;70930;52.412;13.554;2024-01-15T00:07:26;10.00;;;5.18;;
81508;SDS011;70930;52.412;13.554;2024-01-15T00:10:12;9.15;;;5.63;;
81508;SDS011;70930;52.412;13.554;2024-01-15T00:12:58;13.75;;;6.40;;
81508;SDS011;70930;52.412;13.554;2024-01-15T00:15:43;9.07;;;5.47;;
81508;SDS011;70930;52.412;13.554;2024-01-15T00:18:29;10.93;;;5.82;;
81508;SDS011;70930;52.412;13.554;2024-01-15T00:21:15;10.15;;;6.20;;
81508;SDS011;70930;52.412;13.554;2024-01-15T00:24:01;9.05;;;5.53;;
81508;SDS011;70930;52.412;13.554;2024-01-15T00:26:47;13.35;;;6.43;;
81508;SDS011;70930;52.412;13.554;2024-01-15T00:29:32;10.93;;;5.75;;
81508;SDS011;70930;52.412;13.554;2024-01-15T00:32:18;9.65;;;5.53;;
81508;SDS011;70930;52.412;13.554;2024-01-15T00:35:05;10.52;;;5.28;;
81508;SDS011;70930;52.412;13.554;2024-01-15T00:37:51;9.27;;;5.40;;
81508;SDS011;70930;52.412;13.554;2024-01-15T00:40:37;10.73;;;6.20;;
81508;SDS011;70930;52.412;13.554;2024-01-15T00:43:23;14.05;;;5.78;;
81508;SDS011;70930;52.412;13.554;2024-01-15T00:46:09;12.73;;;5.85;;
81508;SDS011;70930;52.412;13.554;2024-01-15T00:48:54;10.57;;;5.80;;
81508;SDS011;70930;52.412;13.554;2024-01-15T00:51:40;9.68;;;5.43;;
81508;SDS011;70930;52.412;13.554;2024-01-15T00:54:26;10.27;;;5.82;;
81508;SDS011;70930;52.412;13.554;2024-01-15T00:57:12;10.73;;;5.72;;
81508;SDS011;70930;52.412;13.554;2024-01-15T00:59:58;9.55;;;5.70;;
81508;SDS011;70930;52.412;13.554;2024-01-15T01:02:43;10.68;;;6.25;;
81508;SDS011;70930;52.412;13.554;2024-01-15T01:05:29;11.57;;;5.00;;
81508;SDS011;70930;52.412;13.554;2024-01-15T01:08:15;9.57;;;5.30;;
81508;SDS011;70930;52.412;13.554;2024-01-15T01:11:03;11.93;;;5.25;;
81508;SDS011;70930;52.412;13.554;2024-01-15T01:13:49;8.82;;;4.90;;
81508;SDS011;70930;52.412;13.554;2024-01-15T01:16:35;9.45;;;4.78;;
81508;SDS011;70930;52.412;13.554;2024-01-15T01:19:26;10.48;;;5.43;;
81508;SDS011;70930;52.412;13.554;2024-01-15T01:22:12;11.52;;;5.80;;
81508;SDS011;70930;52.412;13.554;2024-01-15T01:24:57;10.63;;;5.35;;
81508;SDS011;70930;52.412;13.554;2024-01-15T01:27:43;10.52;;;5.35;;
81508;SDS011;70930;52.412;13.554;2024-01-15T01:30:29;7.97;;;4.35;;
81508;SDS011;70930;52.412;13.554;2024-01-15T01:33:15;11.02;;;5.53;;
81508;SDS011;70930;52.412;13.554;2024-01-15T01:36:06;10.40;;;5.05;;
81508;SDS011;70930;52.412;13.554;2024-01-15T01:38:58;9.43;;;4.97;;
81508;SDS011;70930;52.412;13.554;2024-01-15T01:41:43;14.30;;;6.43;;
81508;SDS011;70930;52.412;13.554;2024-01-15T01:44:29;12.82;;;6.25;;
81508;SDS011;70930;52.412;13.554;2024-01-15T01:47:17;10.75;;;4.82;;
81508;SDS011;70930;52.412;13.554;2024-01-15T01:50:07;10.88;;;5.25;;
81508;SDS011;70930;52.412;13.554;2024-01-15T01:52:53;13.30;;;6.50;;
81508;SDS011;70930;52.412;13.554;2024-01-15T01:55:39;10.27;;;5.88;;
81508;SDS011;70930;52.412;13.554;2024-01-15T01:58:27;10.52;;;5.45;;
81508;SDS011;70930;52.412;13.554;2024-01-15T02:01:14;12.82;;;7.00;;
81508;SDS011;70930;52.412;13.554;2024-01-15T02:04:01;13.60;;;6.63;;
81508;SDS011;70930;52.412;13.554;2024-01-15T02:06:47;15.20;;;7.00;;
81508;SDS011;70930;52.412;13.554;2024-01-15T02:09:34;11.00;;;6.20;;
81508;SDS011;70930;52.412;13.554;2024-01-15T02:12:19;12.15;;;5.85;;
81508;SDS011;70930;52.412;13.554;2024-01-15T02:15:05;15.65;;;5.97;;
81508;SDS011;70930;52.412;13.554;2024-01-15T02:18:01;12.70;;;6.78;;
81508;SDS011;70930;52.412;13.554;2024-01-15T02:20:50;11.40;;;6.63;;
81508;SDS011;70930;52.412;13.554;2024-01-15T02:23:36;10.60;;;5.22;;
81508;SDS011;70930;52.412;13.554;2024-01-15T02:26:22;12.25;;;6.00;;
81508;SDS011;70930;52.412;13.554;2024-01-15T02:29:08;10.68;;;5.43;;
81508;SDS011;70930;52.412;13.554;2024-01-15T02:31:57;10.10;;;5.05;;
81508;SDS011;70930;52.412;13.554;2024-01-15T02:34:43;10.65;;;5.20;;
81508;SDS011;70930;52.412;13.554;2024-01-15T02:37:29;13.63;;;4.97;;
81508;SDS011;70930;52.412;13.554;2024-01-15T02:40:15;12.65;;;5.70;;
81508;SDS011;70930;52.412;13.554;2024-01-15T02:43:00;13.05;;;5.32;;
81508;SDS011;70930;52.412;13.554;2024-01-15T02:45:46;9.98;;;4.38;;
81508;SDS011;70930;52.412;13.554;2024-01-15T02:48:34;9.07;;;4.68;;
81508;SDS011;70930;52.412;13.554;2024-01-15T02:51:20;10.98;;;4.60;;
81508;SDS011;70930;52.412;13.554;2024-01-15T02:54:06;7.32;;;3.75;;
81508;SDS011;70930;52.412;13.554;2024-01-15T02:56:51;10.20;;;4.63;;
81508;SDS011;70930;52.412;13.554;2024-01-15T02:59:37;8.95;;;4.80;;
81508;SDS011;70930;52.412;13.554;2024-01-15T03:02:23;9.98;;;4.75;;
81508;SDS011;70930;52.412;13.554;2024-01-15T03:05:09;7.38;;;4.03;;
81508;SDS011;70930;52.412;13.554;2024-01-15T03:07:55;8.82;;;4.78;;
81508;SDS011;70930;52.412;13.554;2024-01-15T03:10:41;8.27;;;4.93;;
81508;SDS011;70930;52.412;13.554;2024-01-15T03:13:27;7.88;;;4.38;;
81508;SDS011;70930;52.412;13.554;2024-01-15T03:16:13;6.72;;;4.07;;
81508;SDS011;70930;52.412;13.554;2024-01-15T03:18:58;6.95;;;4.07;;
81508;SDS011;70930;52.412;13.554;2024-01-15T03:21:44;8.40;;;4.28;;
81508;SDS011;70930;52.412;13.554;2024-01-15T03:24:31;9.30;;;4.63;;
81508;SDS011;70930;52.412;13.554;2024-01-15T03:27:17;10.77;;;4.10;;
81508;SDS011;70930;52.412;13.554;2024-01-15T03:30:03;8.40;;;4.28;;
81508;SDS011;70930;52.412;13.554;2024-01-15T03:32:49;8.23;;;4.05;;
81508;SDS011;70930;52.412;13.554;2024-01-15T03:35:35;9.95;;;4.00;;
81508;SDS011;70930;52.412;13.554;2024-01-15T03:38:22;9.50;;;4.13;;
81508;SDS011;70930;52.412;13.554;2024-01-15T03:41:08;7.45;;;3.72;;
81508;SDS011;70930;52.412;13.554;2024-01-15T03:43:54;10.10;;;4.03;;
81508;SDS011;70930;52.412;13.554;2024-01-15T03:46:40;8.25;;;3.88;;
81508;SDS011;70930;52.412;13.554;2024-01-15T03:49:25;5.28;;;3.15;;
81508;SDS011;70930;52.412;13.554;2024-01-15T03:52:11;9.63;;;3.70;;
81508;SDS011;70930;52.412;13.554;2024-01-15T03:54:57;9.35;;;4.25;;
81508;SDS011;70930;52.412;13.554;2024-01-15T03:57:43;7.93;;;4.15;;
81508;SDS011;70930;52.412;13.554;2024-01-15T04:00:31;9.02;;;3.63;;
81508;SDS011;70930;52.412;13.554;2024-01-15T04:03:17;6.70;;;3.25;;
81508;SDS011;70930;52.412;13.554;2024-01-15T04:06:06;6.40;;;3.15;;
81508;SDS011;70930;52.412;13.554;2024-01-15T04:08:52;7.43;;;3.00;;
81508;SDS011;70930;52.412;13.554;2024-01-15T04:11:37;6.00;;;3.17;;
81508;SDS011;70930;52.412;13.554;2024-01-15T04:14:23;8.43;;;3.80;;
81508;SDS011;70930;52.412;13.554;2024-01-15T04:17:09;5.20;;;3.28;;
81508;SDS011;70930;52.412;13.554;2024-01-15T04:19:55;7.20;;;3.60;;
81508;SDS011;70930;52.412;13.554;2024-01-15T04:22:44;10.38;;;4.10;;
81508;SDS011;70930;52.412;13.554;2024-01-15T04:25:32;8.75;;;3.80;;
81508;SDS011;70930;52.412;13.554;2024-01-15T04:28:17;9.00;;;4.15;;
81508;SDS011;70930;52.412;13.554;2024-01-15T04:31:03;8.07;;;3.70;;
81508;SDS011;70930;52.412;13.554;2024-01-15T04:33:49;5.85;;;2.47;;
81508;SDS011;70930;52.412;13.554;2024-01-15T04:36:38;8.57;;;3.50;;
81508;SDS011;70930;52.412;13.554;2024-01-15T04:42:14;8.50;;;3.10;;
81508;SDS011;70930;52.412;13.554;2024-01-15T04:45:00;7.35;;;3.25;;
81508;SDS011;70930;52.412;13.554;2024-01-15T04:47:46;8.57;;;2.40;;
81508;SDS011;70930;52.412;13.554;2024-01-15T04:50:31;7.85;;;2.58;;
81508;SDS011;70930;52.412;13.554;2024-01-15T04:53:17;7.30;;;2.83;;
81508;SDS011;70930;52.412;13.554;2024-01-15T04:56:03;4.95;;;2.70;;
81508;SDS011;70930;52.412;13.554;2024-01-15T04:58:49;6.57;;;2.55;;
81508;SDS011;70930;52.412;13.554;2024-01-15T05:01:35;7.85;;;2.25;;
81508;SDS011;70930;52.412;13.554;2024-01-15T05:04:20;5.63;;;2.65;;
81508;SDS011;70930;52.412;13.554;2024-01-15T05:07:06;6.80;;;2.63;;
81508;SDS011;70930;52.412;13.554;2024-01-15T05:09:53;6.93;;;2.80;;
81508;SDS011;70930;52.412;13.554;2024-01-15T05:12:39;5.07;;;2.03;;
81508;SDS011;70930;52.412;13.554;2024-01-15T05:15:25;5.28;;;2.65;;
81508;SDS011;70930;52.412;13.554;2024-01-15T05:18:11;6.85;;;2.67;;
81508;SDS011;70930;52.412;13.554;2024-01-15T05:20:57;7.63;;;2.28;;
81508;SDS011;70930;52.412;13.554;2024-01-15T05:23:42;4.75;;;2.38;;
81508;SDS011;70930;52.412;13.554;2024-01-15T05:26:28;6.50;;;2.35;;
81508;SDS011;70930;52.412;13.554;2024-01-15T05:29:14;11.80;;;3.22;;
81508;SDS011;70930;52.412;13.554;2024-01-15T05:32:00;6.82;;;2.88;;
81508;SDS011;70930;52.412;13.554;2024-01-15T05:34:46;10.00;;;2.20;;
81508;SDS011;70930;52.412;13.554;2024-01-15T05:37:31;4.93;;;2.35;;
81508;SDS011;70930;52.412;13.554;2024-01-15T05:40:17;8.82;;;2.72;;
81508;SDS011;70930;52.412;13.554;2024-01-15T05:43:03;5.97;;;1.92;;
81508;SDS011;70930;52.412;13.554;2024-01-15T05:45:49;3.97;;;2.58;;
81508;SDS011;70930;52.412;13.554;2024-01-15T05:48:34;7.95;;;2.10;;
81508;SDS011;70930;52.412;13.554;2024-01-15T05:51:20;6.55;;;2.10;;
81508;SDS011;70930;52.412;13.554;2024-01-15T05:54:06;8.88;;;3.05;;
81508;SDS011;70930;52.412;13.554;2024-01-15T05:56:51;5.53;;;2.20;;
81508;SDS011;70930;52.412;13.554;2024-01-15T05:59:37;4.43;;;2.13;;
81508;SDS011;70930;52.412;13.554;2024-01-15T06:02:23;5.18;;;2.95;;
81508;SDS011;70930;52.412;13.554;2024-01-15T06:05:08;6.32;;;1.98;;
81508;SDS011;70930;52.412;13.554;2024-01-15T06:07:54;8.18;;;2.63;;
81508;SDS011;70930;52.412;13.554;2024-01-15T06:10:40;7.93;;;2.33;;
81508;SDS011;70930;52.412;13.554;2024-01-15T06:13:26;5.05;;;2.30;;
81508;SDS011;70930;52.412;13.554;2024-01-15T06:16:13;4.93;;;2.13;;
81508;SDS011;70930;52.412;13.554;2024-01-15T06:19:00;4.78;;;2.38;;
81508;SDS011;70930;52.412;13.554;2024-01-15T06:21:46;5.63;;;2.13;;
81508;SDS011;70930;52.412;13.554;2024-01-15T06:24:31;4.43;;;2.50;;
81508;SDS011;70930;52.412;13.554;2024-01-15T06:27:17;3.40;;;1.55;;
81508;SDS011;70930;52.412;13.554;2024-01-15T06:30:03;6.35;;;2.33;;
81508;SDS011;70930;52.412;13.554;2024-01-15T06:32:49;4.00;;;2.00;;
81508;SDS011;70930;52.412;13.554;2024-01-15T06:35:35;6.13;;;2.13;;
81508;SDS011;70930;52.412;13.554;2024-01-15T06:38:21;5.93;;;1.88;;
81508;SDS011;70930;52.412;13.554;2024-01-15T06:41:10;10.60;;;2.05;;
81508;SDS011;70930;52.412;13.554;2024-01-15T06:43:56;5.65;;;1.33;;
81508;SDS011;70930;52.412;13.554;2024-01-15T06:46:42;8.25;;;1.73;;
81508;SDS011;70930;52.412;13.554;2024-01-15T06:49:29;6.82;;;1.73;;
81508;SDS011;70930;52.412;13.554;2024-01-15T06:52:17;3.55;;;1.65;;
81508;SDS011;70930;52.412;13.554;2024-01-15T06:55:03;2.53;;;1.10;;
81508;SDS011;70930;52.412;13.554;2024-01-15T07:00:37;4.75;;;1.50;;
81508;SDS011;70930;52.412;13.554;2024-01-15T07:03:23;9.43;;;1.63;;
81508;SDS011;70930;52.412;13.554;2024-01-15T07:06:09;3.55;;;1.42;;
81508;SDS011;70930;52.412;13.554;2024-01-15T07:08:54;6.13;;;1.77;;
81508;SDS011;70930;52.412;13.554;2024-01-15T07:11:44;5.25;;;1.23;;
81508;SDS011;70930;52.412;13.554;2024-01-15T07:14:30;6.50;;;1.40;;
81508;SDS011;70930;52.412;13.554;2024-01-15T07:17:16;5.40;;;1.45;;
81508;SDS011;70930;52.412;13.554;2024-01-15T07:20:02;2.47;;;1.10;;
81508;SDS011;70930;52.412;13.554;2024-01-15T07:22:51;5.55;;;1.25;;
81508;SDS011;70930;52.412;13.554;2024-01-15T07:25:36;5.22;;;1.35;;
81508;SDS011;70930;52.412;13.554;2024-01-15T07:28:22;4.45;;;1.48;;
81508;SDS011;70930;52.412;13.554;2024-01-15T07:31:08;4.95;;;1.13;;
81508;SDS011;70930;52.412;13.554;2024-01-15T07:33:54;3.65;;;1.00;;
81508;SDS011;70930;52.412;13.554;2024-01-15T07:36:40;5.53;;;1.45;;
81508;SDS011;70930;52.412;13.554;2024-01-15T07:39:25;7.65;;;1.17;;
81508;SDS011;70930;52.412;13.554;2024-01-15T07:42:11;4.30;;;0.95;;
81508;SDS011;70930;52.412;13.554;2024-01-15T07:44:57;3.25;;;0.85;;
81508;SDS011;70930;52.412;13.554;2024-01-15T07:47:43;6.50;;;1.70;;
81508;SDS011;70930;52.412;13.554;2024-01-15T07:50:29;3.80;;;1.27;;
81508;SDS011;70930;52.412;13.554;2024-01-15T07:53:16;8.43;;;1.67;;
81508;SDS011;70930;52.412;13.554;2024-01-15T07:56:02;2.78;;;1.17;;
81508;SDS011;70930;52.412;13.554;2024-01-15T07:58:47;5.13;;;0.98;;
81508;SDS011;70930;52.412;13.554;2024-01-15T08:01:33;4.43;;;1.33;;
81508;SDS011;70930;52.412;13.554;2024-01-15T08:04:19;7.65;;;1.77;;
81508;SDS011;70930;52.412;13.554;2024-01-15T08:07:08;5.18;;;1.40;;
81508;SDS011;70930;52.412;13.554;2024-01-15T08:09:53;5.35;;;1.30;;
81508;SDS011;70930;52.412;13.554;2024-01-15T08:12:39;4.47;;;0.88;;
81508;SDS011;70930;52.412;13.554;2024-01-15T08:15:25;4.57;;;1.30;;
81508;SDS011;70930;52.412;13.554;2024-01-15T08:18:10;8.20;;;1.05;;
81508;SDS011;70930;52.412;13.554;2024-01-15T08:20:56;3.75;;;0.85;;
81508;SDS011;70930;52.412;13.554;2024-01-15T08:23:45;7.28;;;1.17;;
81508;SDS011;70930;52.412;13.554;2024-01-15T08:26:31;5.65;;;1.10;;
81508;SDS011;70930;52.412;13.554;2024-01-15T08:29:20;10.52;;;1.75;;
81508;SDS011;70930;52.412;13.554;2024-01-15T08:32:07;3.20;;;1.20;;
81508;SDS011;70930;52.412;13.554;2024-01-15T08:34:52;5.05;;;1.02;;
81508;SDS011;70930;52.412;13.554;2024-01-15T08:37:38;8.52;;;1.30;;
81508;SDS011;70930;52.412;13.554;2024-01-15T08:40:24;7.00;;;1.20;;
81508;SDS011;70930;52.412;13.554;2024-01-15T08:43:10;4.78;;;1.48;;
81508;SDS011;70930;52.412;13.554;2024-01-15T08:45:55;1.80;;;0.85;;
81508;SDS011;70930;52.412;13.554;2024-01-15T08:48:41;6.50;;;1.35;;
81508;SDS011;70930;52.412;13.554;2024-01-15T08:51:27;6.45;;;1.23;;
81508;SDS011;70930;52.412;13.554;2024-01-15T08:54:13;6.22;;;1.23;;
81508;SDS011;70930;52.412;13.554;2024-01-15T08:56:59;3.53;;;1.05;;
81508;SDS011;70930;52.412;13.554;2024-01-15T08:59:45;5.20;;;1.27;;
81508;SDS011;70930;52.412;13.554;2024-01-15T09:02:30;4.45;;;1.38;;
81508;SDS011;70930;52.412;13.554;2024-01-15T09:05:16;4.43;;;1.30;;
81508;SDS011;70930;52.412;13.554;2024-01-15T09:08:07;5.30;;;1.13;;
81508;SDS011;70930;52.412;13.554;2024-01-15T09:10:53;6.25;;;1.20;;
81508;SDS011;70930;52.412;13.554;2024-01-15T09:13:39;5.13;;;1.25;;
81508;SDS011;70930;52.412;13.554;2024-01-15T09:16:27;5.90;;;1.85;;
81508;SDS011;70930;52.412;13.554;2024-01-15T09:19:13;4.85;;;1.30;;
81508;SDS011;70930;52.412;13.554;2024-01-15T09:21:59;3.72;;;1.10;;
81508;SDS011;70930;52.412;13.554;2024-01-15T09:24:45;4.65;;;1.40;;
81508;SDS011;70930;52.412;13.554;2024-01-15T09:27:31;6.20;;;1.60;;
81508;SDS011;70930;52.412;13.554;2024-01-15T09:30:18;8.35;;;1.65;;
81508;SDS011;70930;52.412;13.554;2024-01-15T09:33:03;3.70;;;1.65;;
81508;SDS011;70930;52.412;13.554;2024-01-15T09:35:50;6.78;;;1.58;;
81508;SDS011;70930;52.412;13.554;2024-01-15T09:38:36;4.63;;;1.65;;
81508;SDS011;70930;52.412;13.554;2024-01-15T09:41:25;5.22;;;1.55;;
81508;SDS011;70930;52.412;13.554;2024-01-15T09:44:11;4.22;;;1.35;;
81508;SDS011;70930;52.412;13.554;2024-01-15T09:47:00;2.47;;;1.10;;
81508;SDS011;70930;52.412;13.554;2024-01-15T09:49:46;4.72;;;1.02;;
81508;SDS011;70930;52.412;13.554;2024-01-15T09:52:32;5.13;;;1.80;;
81508;SDS011;70930;52.412;13.554;2024-01-15T09:55:20;4.60;;;1.20;;
81508;SDS011;70930;52.412;13.554;2024-01-15T09:58:07;8.13;;;1.48;;
81508;SDS011;70930;52.412;13.554;2024-01-15T10:00:53;6.43;;;1.48;;
81508;SDS011;70930;52.412;13.554;2024-01-15T10:03:39;6.38;;;1.10;;
81508;SDS011;70930;52.412;13.554;2024-01-15T10:06:26;4.65;;;1.40;;
81508;SDS011;70930;52.412;13.554;2024-01-15T10:09:15;4.30;;;1.00;;
81508;SDS011;70930;52.412;13.554;2024-01-15T10:12:01;3.30;;;1.10;;
81508;SDS011;70930;52.412;13.554;2024-01-15T10:14:46;4.47;;;1.05;;
81508;SDS011;70930;52.412;13.554;2024-01-15T10:17:32;2.83;;;1.17;;
81508;SDS011;70930;52.412;13.554;2024-01-15T10:20:18;3.58;;;1.40;;
81508;SDS011;70930;52.412;13.554;2024-01-15T10:23:04;6.30;;;1.63;;
81508;SDS011;70930;52.412;13.554;2024-01-15T10:25:50;3.20;;;1.42;;
81508;SDS011;70930;52.412;13.554;2024-01-15T10:28:38;1.17;;;0.80;;
81508;SDS011;70930;52.412;13.554;2024-01-15T10:31:30;3.78;;;1.10;;
81508;SDS011;70930;52.412;13.554;2024-01-15T10:34:16;1.20;;;0.70;;
81508;SDS011;70930;52.412;13.554;2024-01-15T10:37:03;3.17;;;1.13;;
81508;SDS011;70930;52.412;13.554;2024-01-15T10:39:48;2.22;;;0.85;;
81508;SDS011;70930;52.412;13.554;2024-01-15T10:42:34;3.00;;;1.30;;
81508;SDS011;70930;52.412;13.554;2024-01-15T10:45:20;3.35;;;1.15;;
81508;SDS011;70930;52.412;13.554;2024-01-15T10:48:08;1.67;;;0.90;;
81508;SDS011;70930;52.412;13.554;2024-01-15T10:50:54;3.45;;;1.30;;
81508;SDS011;70930;52.412;13.554;2024-01-15T10:53:39;3.17;;;1.38;;
81508;SDS011;70930;52.412;13.554;2024-01-15T10:56:27;4.22;;;1.13;;
81508;SDS011;70930;52.412;13.554;2024-01-15T10:59:13;2.88;;;1.00;;
81508;SDS011;70930;52.412;13.554;2024-01-15T11:01:59;2.80;;;1.25;;
81508;SDS011;70930;52.412;13.554;2024-01-15T11:04:45;4.63;;;1.35;;
81508;SDS011;70930;52.412;13.554;2024-01-15T11:07:31;6.43;;;0.90;;
81508;SDS011;70930;52.412;13.554;2024-01-15T11:16:16;3.17;;;1.27;;
81508;SDS011;70930;52.412;13.554;2024-01-15T11:19:05;3.55;;;1.20;;
81508;SDS011;70930;52.412;13.554;2024-01-15T11:21:53;4.78;;;1.05;;
81508;SDS011;70930;52.412;13.554;2024-01-15T11:24:39;4.07;;;0.98;;
81508;SDS011;70930;52.412;13.554;2024-01-15T11:27:42;5.18;;;1.20;;
81508;SDS011;70930;52.412;13.554;2024-01-15T11:30:28;2.03;;;1.23;;
81508;SDS011;70930;52.412;13.554;2024-01-15T11:33:34;2.88;;;0.82;;
81508;SDS011;70930;52.412;13.554;2024-01-15T11:36:20;1.98;;;1.10;;
81508;SDS011;70930;52.412;13.554;2024-01-15T11:42:12;1.55;;;0.88;;
81508;SDS011;70930;52.412;13.554;2024-01-15T11:44:59;2.20;;;1.30;;
81508;SDS011;70930;52.412;13.554;2024-01-15T11:51:10;5.20;;;1.30;;
81508;SDS011;70930;52.412;13.554;2024-01-15T11:53:59;2.35;;;1.08;;
81508;SDS011;70930;52.412;13.554;2024-01-15T11:56:50;3.85;;;0.98;;
81508;SDS011;70930;52.412;13.554;2024-01-15T11:59:36;3.22;;;1.42;;
81508;SDS011;70930;52.412;13.554;2024-01-15T12:02:22;3.88;;;1.20;;
81508;SDS011;70930;52.412;13.554;2024-01-15T12:05:09;2.60;;;1.10;;
81508;SDS011;70930;52.412;13.554;2024-01-15T12:07:55;1.80;;;0.95;;
81508;SDS011;70930;52.412;13.554;2024-01-15T12:10:41;1.83;;;1.02;;
81508;SDS011;70930;52.412;13.554;2024-01-15T12:13:27;3.30;;;1.10;;
81508;SDS011;70930;52.412;13.554;2024-01-15T12:16:13;1.75;;;1.00;;
81508;SDS011;70930;52.412;13.554;2024-01-15T12:18:59;2.88;;;1.10;;
81508;SDS011;70930;52.412;13.554;2024-01-15T12:21:45;1.42;;;1.00;;
81508;SDS011;70930;52.412;13.554;2024-01-15T12:24:32;3.60;;;1.52;;
81508;SDS011;70930;52.412;13.554;2024-01-15T12:27:18;1.27;;;1.00;;
81508;SDS011;70930;52.412;13.554;2024-01-15T12:30:04;3.83;;;1.60;;
81508;SDS011;70930;52.412;13.554;2024-01-15T12:32:50;2.30;;;1.27;;
81508;SDS011;70930;52.412;13.554;2024-01-15T12:35:36;2.33;;;1.30;;
81508;SDS011;70930;52.412;13.554;2024-01-15T12:38:22;2.72;;;1.30;;
81508;SDS011;70930;52.412;13.554;2024-01-15T12:41:08;2.13;;;0.80;;
81508;SDS011;70930;52.412;13.554;2024-01-15T12:43:53;1.60;;;1.02;;
81508;SDS011;70930;52.412;13.554;2024-01-15T12:46:39;1.77;;;0.88;;
81508;SDS011;70930;52.412;13.554;2024-01-15T12:49:25;2.08;;;0.75;;
81508;SDS011;70930;52.412;13.554;2024-01-15T12:52:11;1.77;;;0.70;;
81508;SDS011;70930;52.412;13.554;2024-01-15T12:54:56;1.08;;;0.70;;
81508;SDS011;70930;52.412;13.554;2024-01-15T12:57:42;1.75;;;0.70;;
81508;SDS011;70930;52.412;13.554;2024-01-15T13:00:28;1.25;;;0.80;;
81508;SDS011;70930;52.412;13.554;2024-01-15T13:03:14;2.00;;;0.70;;
81508;SDS011;70930;52.412;13.554;2024-01-15T13:06:00;1.50;;;1.00;;
81508;SDS011;70930;52.412;13.554;2024-01-15T13:08:45;2.28;;;0.95;;
81508;SDS011;70930;52.412;13.554;2024-01-15T13:11:32;1.35;;;0.90;;
81508;SDS011;70930;52.412;13.554;2024-01-15T13:14:18;2.67;;;0.90;;
81508;SDS011;70930;52.412;13.554;2024-01-15T13:17:04;1.65;;;0.90;;
81508;SDS011;70930;52.412;13.554;2024-01-15T13:19:50;3.47;;;0.82;;
81508;SDS011;70930;52.412;13.554;2024-01-15T13:22:38;2.45;;;0.88;;
81508;SDS011;70930;52.412;13.554;2024-01-15T13:25:25;1.75;;;1.00;;
81508;SDS011;70930;52.412;13.554;2024-01-15T13:28:11;3.03;;;1.00;;
81508;SDS011;70930;52.412;13.554;2024-01-15T13:30:56;3.50;;;1.70;;
81508;SDS011;70930;52.412;13.554;2024-01-15T13:33:42;2.50;;;1.00;;
81508;SDS011;70930;52.412;13.554;2024-01-15T13:36:28;2.58;;;0.98;;
81508;SDS011;70930;52.412;13.554;2024-01-15T13:39:14;2.78;;;1.13;;
81508;SDS011;70930;52.412;13.554;2024-01-15T13:41:59;1.50;;;1.02;;
81508;SDS011;70930;52.412;13.554;2024-01-15T13:44:45;1.83;;;0.93;;
81508;SDS011;70930;52.412;13.554;2024-01-15T13:47:31;1.77;;;1.00;;
81508;SDS011;70930;52.412;13.554;2024-01-15T13:50:18;4.32;;;0.98;;
81508;SDS011;70930;52.412;13.554;2024-01-15T13:53:04;2.58;;;1.08;;
81508;SDS011;70930;52.412;13.554;2024-01-15T13:55:49;2.53;;;1.10;;
81508;SDS011;70930;52.412;13.554;2024-01-15T13:58:35;5.47;;;1.70;;
81508;SDS011;70930;52.412;13.554;2024-01-15T14:01:21;3.95;;;1.40;;
81508;SDS011;70930;52.412;13.554;2024-01-15T14:04:07;4.72;;;1.98;;
81508;SDS011;70930;52.412;13.554;2024-01-15T14:06:55;3.00;;;1.48;;
81508;SDS011;70930;52.412;13.554;2024-01-15T14:09:41;4.28;;;1.63;;
81508;SDS011;70930;52.412;13.554;2024-01-15T14:12:27;4.38;;;0.90;;
81508;SDS011;70930;52.412;13.554;2024-01-15T14:15:13;4.15;;;1.40;;
81508;SDS011;70930;52.412;13.554;2024-01-15T14:18:01;4.10;;;1.10;;
81508;SDS011;70930;52.412;13.554;2024-01-15T14:20:47;3.28;;;1.60;;
81508;SDS011;70930;52.412;13.554;2024-01-15T14:23:33;3.80;;;1.35;;
81508;SDS011;70930;52.412;13.554;2024-01-15T14:26:19;2.78;;;1.50;;
81508;SDS011;70930;52.412;13.554;2024-01-15T14:29:05;3.67;;;1.40;;
81508;SDS011;70930;52.412;13.554;2024-01-15T14:31:51;7.38;;;1.83;;
81508;SDS011;70930;52.412;13.554;2024-01-15T14:34:37;4.18;;;1.50;;
81508;SDS011;70930;52.412;13.554;2024-01-15T14:37:22;4.85;;;1.75;;
81508;SDS011;70930;52.412;13.554;2024-01-15T14:40:08;3.17;;;1.33;;
81508;SDS011;70930;52.412;13.554;2024-01-15T14:42:57;4.05;;;1.42;;
81508;SDS011;70930;52.412;13.554;2024-01-15T14:45:43;4.05;;;1.42;;
81508;SDS011;70930;52.412;13.554;2024-01-15T14:48:30;3.40;;;1.63;;
81508;SDS011;70930;52.412;13.554;2024-01-15T14:51:15;3.80;;;1.30;;
81508;SDS011;70930;52.412;13.554;2024-01-15T14:54:02;10.55;;;1.50;;
81508;SDS011;70930;52.412;13.554;2024-01-15T14:56:48;5.78;;;1.85;;
81508;SDS011;70930;52.412;13.554;2024-01-15T14:59:33;3.63;;;1.55;;
81508;SDS011;70930;52.412;13.554;2024-01-15T15:02:19;2.45;;;1.38;;
81508;SDS011;70930;52.412;13.554;2024-01-15T15:05:05;3.83;;;1.35;;
81508;SDS011;70930;52.412;13.554;2024-01-15T15:07:51;1.73;;;0.93;;
81508;SDS011;70930;52.412;13.554;2024-01-15T15:10:40;4.15;;;1.30;;
81508;SDS011;70930;52.412;13.554;2024-01-15T15:13:26;3.90;;;1.42;;
81508;SDS011;70930;52.412;13.554;2024-01-15T15:16:12;2.13;;;1.00;;
81508;SDS011;70930;52.412;13.554;2024-01-15T15:18:58;4.40;;;1.35;;
81508;SDS011;70930;52.412;13.554;2024-01-15T15:21:43;5.20;;;1.60;;
81508;SDS011;70930;52.412;13.554;2024-01-15T15:24:29;2.45;;;1.02;;
81508;SDS011;70930;52.412;13.554;2024-01-15T15:27:18;1.52;;;1.10;;
81508;SDS011;70930;52.412;13.554;2024-01-15T15:30:07;3.67;;;1.10;;
81508;SDS011;70930;52.412;13.554;2024-01-15T15:32:53;3.13;;;1.00;;
81508;SDS011;70930;52.412;13.554;2024-01-15T15:35:39;3.20;;;1.10;;
81508;SDS011;70930;52.412;13.554;2024-01-15T15:38:24;2.38;;;1.10;;
81508;SDS011;70930;52.412;13.554;2024-01-15T15:41:10;2.33;;;0.80;;
81508;SDS011;70930;52.412;13.554;2024-01-15T15:43:56;2.40;;;1.02;;
81508;SDS011;70930;52.412;13.554;2024-01-15T15:46:43;4.25;;;1.00;;
81508;SDS011;70930;52.412;13.554;2024-01-15T15:49:29;4.60;;;1.45;;
81508;SDS011;70930;52.412;13.554;2024-01-15T15:52:15;2.53;;;1.10;;
81508;SDS011;70930;52.412;13.554;2024-01-15T15:55:01;5.28;;;1.67;;
81508;SDS011;70930;52.412;13.554;2024-01-15T15:57:47;5.43;;;1.58;;
81508;SDS011;70930;52.412;13.554;2024-01-15T16:00:33;4.90;;;1.13;;
81508;SDS011;70930;52.412;13.554;2024-01-15T16:03:19;5.32;;;1.40;;
81508;SDS011;70930;52.412;13.554;2024-01-15T16:06:05;2.30;;;1.33;;
81508;SDS011;70930;52.412;13.554;2024-01-15T16:08:51;2.50;;;1.10;;
81508;SDS011;70930;52.412;13.554;2024-01-15T16:11:37;3.85;;;1.20;;
81508;SDS011;70930;52.412;13.554;2024-01-15T16:14:25;5.32;;;1.35;;
81508;SDS011;70930;52.412;13.554;2024-01-15T16:17:11;2.17;;;1.05;;
81508;SDS011;70930;52.412;13.554;2024-01-15T16:20:00;3.95;;;1.15;;
81508;SDS011;70930;52.412;13.554;2024-01-15T16:22:46;2.42;;;1.50;;
81508;SDS011;70930;52.412;13.554;2024-01-15T16:25:32;5.30;;;1.20;;
81508;SDS011;70930;52.412;13.554;2024-01-15T16:28:17;4.38;;;1.52;;
81508;SDS011;70930;52.412;13.554;2024-01-15T16:31:08;3.45;;;1.40;;
81508;SDS011;70930;52.412;13.554;2024-01-15T16:33:54;4.80;;;1.33;;
81508;SDS011;70930;52.412;13.554;2024-01-15T16:36:39;4.30;;;1.33;;
81508;SDS011;70930;52.412;13.554;2024-01-15T16:39:28;3.75;;;1.60;;
81508;SDS011;70930;52.412;13.554;2024-01-15T16:42:14;5.85;;;1.35;;
81508;SDS011;70930;52.412;13.554;2024-01-15T16:45:02;4.78;;;1.52;;